Airfield :
LOGIN :

Register | Disclaimer

   EN    FR    IT 

 










Legend :    VFR   Marginal VFR   IFR   Intensive IFR   Very Intensive IFR
Visi :
Ceiling :
>= 8 km
>= 3000ft
5 to 8 km
1000 to 3000 ft
1500m to 5 km
500 to 1000 ft
800 to 1500m
200 to 500 ft
< 800m
< 200 ft
Symbols :   Thunderstorms  Fog  Heavy snow  Heavy precipitations  Wind > 20 kt
SIGMETs :     Misc.  Thunderstorms  Icing  Turbulence  Mountain Waves  Volcanic Ashes







- Airport Elevation : 1187 ft


LIBV - Gioia del Colle Bari

CURRENT METAR :
  • 220355Z 34014KT 9999 SCT030 05/M01 Q1009 RMK SCT VIS MIN 9999 WIND THR32 35014KT WIND THR14 35013KT BLU

EXPIRED METARs :
  • 220255Z 34015KT 9999 SCT030 05/M00 Q1009 RMK SCT VIS MIN 9999 WIND THR32 35014KT WIND THR14 34015KT BLU
  • 220155Z 33017KT 9999 FEW030 05/01 Q1008 RMK FEW VIS MIN 9999 WIND THR32 33016KT WIND THR14 33016KT BLU

TAF TAF LIBV
Valid from the 22 at 03:00 until the 22 at 12:00 UTC


220200Z 2203/2212 33016KT 9999 SCT020 BKN050
TEMPO 2203/2206 33018G28KT
No reported NOTAMs for that airfield.



MET'MAP, your aeronautical weather chart ! - Copyright ORBIFLY December 2007 - Disclaimer

ORBIFLY MET'MAP TEAM :

Programming & Development : Alexandra Zaïnal
Concept & Development : Baudouin d'Aumeries
Co-Development & Prog : Marc-Olivier Méhu
Technical & hardware support : Manuel Goepfert

Contact : metmap@orbifly.com




SOURCES & CREDITS :

   NOAA